createdAt,value
2023-05-02T00:01:41.212Z,6.72
2023-05-02T00:04:16.764Z,6.30
2023-05-02T00:06:52.113Z,7.20
2023-05-02T00:09:28.104Z,7.40
2023-05-02T00:12:08.945Z,8.40
2023-05-02T00:14:48.753Z,6.97
2023-05-02T00:17:24.390Z,7.68
2023-05-02T00:20:02.823Z,6.93
2023-05-02T00:22:43.009Z,6.60
2023-05-02T00:25:29.083Z,6.93
2023-05-02T00:28:15.433Z,7.70
2023-05-02T00:31:04.563Z,7.60
2023-05-02T00:33:43.910Z,7.10
2023-05-02T00:36:19.318Z,7.32
2023-05-02T00:38:59.364Z,7.30
2023-05-02T00:41:36.166Z,8.00
2023-05-02T00:44:17.759Z,7.80
2023-05-02T00:46:54.996Z,7.32
2023-05-02T00:49:35.811Z,8.20
2023-05-02T00:52:16.578Z,7.22
2023-05-02T00:54:56.968Z,7.30
2023-05-02T00:57:39.712Z,7.68
2023-05-02T01:00:14.260Z,7.15
2023-05-02T01:03:00.316Z,8.18
2023-05-02T01:05:45.986Z,8.32
2023-05-02T01:08:24.958Z,7.70
2023-05-02T01:11:02.659Z,7.80
2023-05-02T01:13:36.247Z,7.90
2023-05-02T01:16:12.430Z,7.37
2023-05-02T01:18:53.468Z,8.70
2023-05-02T01:21:34.526Z,7.68
2023-05-02T01:24:15.124Z,7.25
2023-05-02T01:26:56.269Z,6.75
2023-05-02T01:29:35.453Z,7.75
2023-05-02T01:32:14.487Z,7.95
2023-05-02T01:34:54.917Z,6.80
2023-05-02T01:37:31.099Z,7.57
2023-05-02T01:40:09.994Z,7.10
2023-05-02T01:42:47.028Z,7.00
2023-05-02T01:45:36.846Z,7.18
2023-05-02T01:48:18.601Z,7.82
2023-05-02T01:50:54.954Z,7.28
2023-05-02T01:53:39.499Z,6.55
2023-05-02T01:56:19.233Z,7.82
2023-05-02T01:58:57.475Z,7.50
2023-05-02T02:01:38.412Z,7.05
2023-05-02T02:04:16.062Z,6.85
2023-05-02T02:06:56.754Z,8.25
2023-05-02T02:09:34.748Z,7.60
2023-05-02T02:12:12.430Z,8.35
2023-05-02T02:14:50.900Z,8.90
2023-05-02T02:17:42.021Z,8.13
2023-05-02T02:20:19.578Z,6.93
2023-05-02T02:23:04.194Z,8.20
2023-05-02T02:25:42.659Z,7.30
2023-05-02T02:28:28.578Z,8.18
2023-05-02T02:31:12.710Z,7.83
2023-05-02T02:34:04.038Z,8.30
2023-05-02T02:36:42.536Z,6.97
2023-05-02T02:39:22.778Z,8.57
2023-05-02T02:42:09.393Z,6.90
2023-05-02T02:44:48.691Z,7.70
2023-05-02T02:47:27.911Z,7.80
2023-05-02T02:50:19.011Z,7.13
2023-05-02T02:52:53.298Z,6.63
2023-05-02T02:55:43.866Z,8.30
2023-05-02T02:58:32.000Z,7.35
2023-05-02T03:01:11.932Z,8.40
2023-05-02T03:03:49.965Z,8.63
2023-05-02T03:06:32.608Z,7.10
2023-05-02T03:09:09.943Z,7.93
2023-05-02T03:11:49.597Z,7.63
2023-05-02T03:14:28.573Z,8.83
2023-05-02T03:17:10.336Z,8.55
2023-05-02T03:19:58.767Z,9.70
2023-05-02T03:22:40.529Z,8.68
2023-05-02T03:25:15.455Z,7.57
2023-05-02T03:27:55.324Z,6.60
2023-05-02T03:30:31.554Z,7.55
2023-05-02T03:33:09.324Z,6.82
2023-05-02T03:35:45.929Z,6.50
2023-05-02T03:38:29.983Z,5.10
2023-05-02T03:41:11.782Z,5.90
2023-05-02T03:43:47.951Z,7.22
2023-05-02T03:46:27.504Z,8.48
2023-05-02T03:49:08.978Z,6.28
2023-05-02T03:51:50.552Z,5.07
2023-05-02T03:54:39.893Z,4.95
2023-05-02T03:57:16.688Z,4.60
2023-05-02T03:59:54.966Z,4.80
2023-05-02T04:02:41.754Z,4.95
2023-05-02T04:05:26.326Z,4.20
2023-05-02T04:08:05.571Z,4.38
2023-05-02T04:10:41.413Z,5.28
2023-05-02T04:13:27.741Z,3.93
2023-05-02T04:16:14.625Z,4.18
2023-05-02T04:18:56.830Z,4.28
2023-05-02T04:21:44.081Z,5.05
2023-05-02T04:24:20.584Z,4.38
2023-05-02T04:26:58.221Z,4.60
2023-05-02T04:29:42.380Z,3.92
2023-05-02T04:32:23.411Z,4.70
2023-05-02T04:35:08.732Z,4.88
2023-05-02T04:38:06.584Z,4.82
2023-05-02T04:40:50.952Z,4.25
2023-05-02T04:43:33.636Z,3.80
2023-05-02T04:46:19.778Z,4.05
2023-05-02T04:49:02.725Z,4.75
2023-05-02T04:51:46.118Z,4.13
2023-05-02T04:54:40.507Z,4.80
2023-05-02T04:57:21.317Z,4.53
2023-05-02T05:00:03.008Z,4.50
2023-05-02T05:02:44.897Z,4.50
2023-05-02T05:05:24.811Z,4.85
2023-05-02T05:07:59.600Z,4.85
2023-05-02T05:10:41.561Z,5.32
2023-05-02T05:13:18.813Z,4.73
2023-05-02T05:15:58.498Z,5.30
2023-05-02T05:18:44.060Z,4.78
2023-05-02T05:21:29.456Z,4.65
2023-05-02T05:24:10.335Z,4.75
2023-05-02T05:26:51.184Z,4.68
2023-05-02T05:29:29.827Z,5.32
2023-05-02T05:32:10.083Z,5.15
2023-05-02T05:34:48.609Z,5.20
2023-05-02T05:37:29.555Z,5.00
2023-05-02T05:40:10.039Z,4.50
2023-05-02T05:42:50.329Z,4.87
2023-05-02T05:45:33.243Z,5.53
2023-05-02T05:48:17.518Z,6.28
2023-05-02T05:51:01.951Z,6.80
2023-05-02T05:53:37.825Z,6.53
2023-05-02T05:56:18.481Z,7.03
2023-05-02T05:59:06.621Z,6.60
2023-05-02T06:01:42.962Z,7.47
2023-05-02T06:04:21.897Z,6.83
2023-05-02T06:06:59.417Z,6.93
2023-05-02T06:09:54.177Z,6.80
2023-05-02T06:12:56.335Z,7.35
2023-05-02T06:15:44.125Z,7.50
2023-05-02T06:21:12.752Z,7.32
2023-05-02T06:23:50.735Z,6.50
2023-05-02T06:26:38.757Z,6.65
2023-05-02T06:29:15.097Z,6.43
2023-05-02T06:31:53.293Z,6.57
2023-05-02T06:34:29.346Z,5.80
2023-05-02T06:37:09.016Z,5.70
2023-05-02T06:39:48.090Z,5.15
2023-05-02T06:42:27.751Z,5.47
2023-05-02T06:45:05.047Z,6.00
2023-05-02T06:47:45.775Z,5.63
2023-05-02T06:50:24.799Z,6.13
2023-05-02T06:53:00.083Z,5.97
2023-05-02T06:55:43.110Z,5.00
2023-05-02T06:58:28.969Z,6.35
2023-05-02T07:01:09.186Z,5.05
2023-05-02T07:03:48.926Z,5.00
2023-05-02T07:06:42.013Z,5.03
2023-05-02T07:09:19.393Z,4.05
2023-05-02T07:11:56.223Z,4.43
2023-05-02T07:14:35.224Z,5.38
2023-05-02T07:17:17.080Z,4.60
2023-05-02T07:19:49.124Z,3.05
2023-05-02T07:22:28.842Z,5.20
2023-05-02T07:25:05.522Z,5.38
2023-05-02T07:27:47.208Z,4.75
2023-05-02T07:31:18.932Z,4.53
2023-05-02T07:40:26.796Z,5.50
2023-05-02T07:43:33.873Z,5.38
2023-05-02T07:46:33.346Z,5.60
2023-05-02T07:49:28.254Z,5.35
2023-05-02T07:52:22.050Z,5.30
2023-05-02T08:11:47.216Z,5.55
2023-05-02T08:14:39.107Z,5.10
2023-05-02T08:20:08.589Z,5.43
2023-05-02T08:23:00.284Z,5.05
2023-05-02T08:25:42.008Z,4.95
2023-05-02T08:28:20.562Z,5.03
2023-05-02T08:31:46.734Z,5.43
2023-05-02T08:44:54.726Z,5.45
2023-05-02T08:47:58.578Z,5.55
2023-05-02T08:50:56.918Z,4.70
2023-05-02T08:56:42.742Z,4.50
2023-05-02T08:59:33.510Z,4.85
2023-05-02T09:02:32.501Z,4.60
2023-05-02T09:05:14.268Z,5.15
2023-05-02T09:07:53.033Z,4.28
2023-05-02T09:10:30.817Z,5.30
2023-05-02T09:20:04.362Z,5.40
2023-05-02T09:22:55.369Z,5.40
2023-05-02T09:28:57.010Z,5.60
2023-05-02T09:37:24.023Z,5.35
2023-05-02T09:40:36.413Z,5.13
2023-05-02T09:43:23.233Z,5.03
2023-05-02T09:46:08.292Z,4.80
2023-05-02T09:49:14.715Z,5.75
2023-05-02T09:51:58.737Z,4.70
2023-05-02T09:55:08.361Z,5.35
2023-05-02T09:57:42.952Z,5.65
2023-05-02T10:00:25.619Z,5.60
2023-05-02T10:03:05.011Z,5.30
2023-05-02T10:05:49.389Z,5.25
2023-05-02T10:08:32.156Z,6.10
2023-05-02T10:11:17.432Z,5.68
2023-05-02T10:14:08.461Z,5.45
2023-05-02T10:16:52.058Z,5.25
2023-05-02T10:19:34.251Z,5.13
2023-05-02T10:22:32.700Z,6.00
2023-05-02T10:25:12.447Z,5.35
2023-05-02T10:27:54.230Z,5.15
2023-05-02T10:30:35.641Z,4.57
2023-05-02T10:33:22.409Z,3.83
2023-05-02T10:36:02.001Z,3.70
2023-05-02T10:48:18.456Z,3.20
2023-05-02T11:17:36.209Z,5.80
2023-05-02T11:23:43.803Z,5.47
2023-05-02T11:26:52.542Z,5.50
2023-05-02T11:30:02.141Z,5.60
2023-05-02T11:33:04.837Z,5.75
2023-05-02T11:48:02.311Z,4.38
2023-05-02T11:50:54.855Z,4.75
2023-05-02T11:53:41.968Z,4.85
2023-05-02T11:56:38.482Z,4.90
2023-05-02T12:09:32.285Z,5.73
2023-05-02T12:12:30.232Z,5.07
2023-05-02T12:15:06.136Z,5.32
2023-05-02T12:18:01.622Z,5.45
2023-05-02T12:36:53.996Z,5.20
2023-05-02T12:39:42.081Z,5.50
2023-05-02T12:42:21.828Z,6.07
2023-05-02T12:45:01.381Z,6.40
2023-05-02T12:47:48.324Z,6.45
2023-05-02T12:50:24.396Z,6.40
2023-05-02T12:53:20.695Z,6.05
2023-05-02T12:56:10.972Z,6.28
2023-05-02T12:58:54.081Z,6.38
2023-05-02T13:01:40.373Z,6.20
2023-05-02T13:04:21.547Z,5.63
2023-05-02T13:06:59.242Z,6.53
2023-05-02T13:09:35.055Z,5.80
2023-05-02T13:12:20.021Z,4.85
2023-05-02T13:14:57.349Z,4.30
2023-05-02T13:17:41.576Z,4.27
2023-05-02T13:20:18.083Z,4.22
2023-05-02T13:22:58.750Z,4.05
2023-05-02T13:25:40.142Z,4.53
2023-05-02T13:28:29.692Z,3.75
2023-05-02T13:31:21.334Z,3.15
2023-05-02T13:34:03.511Z,3.25
2023-05-02T13:43:17.182Z,3.10
2023-05-02T13:48:58.082Z,2.53
2023-05-02T21:42:17.728Z,5.00
2023-05-02T23:06:53.184Z,5.60
2023-05-02T23:09:55.125Z,5.03
